sensor_id;sensor_type;location;lat;lon;timestamp;P1;durP1;ratioP1;P2;durP2;ratioP2
59856;SDS011;45733;52.668;6.860;2023-03-01T00:01:00;1.20;;;1.20;;
59856;SDS011;45733;52.668;6.860;2023-03-01T00:03:34;1.30;;;1.30;;
59856;SDS011;45733;52.668;6.860;2023-03-01T00:06:00;1.20;;;1.20;;
59856;SDS011;45733;52.668;6.860;2023-03-01T00:08:27;1.20;;;1.20;;
59856;SDS011;45733;52.668;6.860;2023-03-01T00:13:27;1.30;;;1.30;;
59856;SDS011;45733;52.668;6.860;2023-03-01T00:15:53;1.40;;;1.40;;
59856;SDS011;45733;52.668;6.860;2023-03-01T00:18:19;1.60;;;1.50;;
59856;SDS011;45733;52.668;6.860;2023-03-01T00:20:51;1.25;;;1.25;;
59856;SDS011;45733;52.668;6.860;2023-03-01T00:23:18;1.20;;;1.20;;
59856;SDS011;45733;52.668;6.860;2023-03-01T00:25:44;1.30;;;1.30;;
59856;SDS011;45733;52.668;6.860;2023-03-01T00:28:10;1.30;;;1.30;;
59856;SDS011;45733;52.668;6.860;2023-03-01T00:30:36;1.30;;;1.30;;
59856;SDS011;45733;52.668;6.860;2023-03-01T00:33:01;1.27;;;1.27;;
59856;SDS011;45733;52.668;6.860;2023-03-01T00:35:27;1.20;;;1.20;;
59856;SDS011;45733;52.668;6.860;2023-03-01T00:37:53;1.50;;;1.40;;
59856;SDS011;45733;52.668;6.860;2023-03-01T00:40:28;1.20;;;1.20;;
59856;SDS011;45733;52.668;6.860;2023-03-01T00:42:55;1.50;;;1.40;;
59856;SDS011;45733;52.668;6.860;2023-03-01T00:45:22;1.30;;;1.30;;
59856;SDS011;45733;52.668;6.860;2023-03-01T00:47:49;1.30;;;1.30;;
59856;SDS011;45733;52.668;6.860;2023-03-01T00:50:15;1.20;;;1.20;;
59856;SDS011;45733;52.668;6.860;2023-03-01T00:52:41;1.25;;;1.25;;
59856;SDS011;45733;52.668;6.860;2023-03-01T00:55:07;1.50;;;1.40;;
59856;SDS011;45733;52.668;6.860;2023-03-01T00:57:33;1.30;;;1.30;;
59856;SDS011;45733;52.668;6.860;2023-03-01T00:59:58;1.40;;;1.33;;
59856;SDS011;45733;52.668;6.860;2023-03-01T01:02:24;1.40;;;1.40;;
59856;SDS011;45733;52.668;6.860;2023-03-01T01:04:50;1.30;;;1.30;;
59856;SDS011;45733;52.668;6.860;2023-03-01T01:07:17;1.30;;;1.30;;
59856;SDS011;45733;52.668;6.860;2023-03-01T01:09:45;1.23;;;1.23;;
59856;SDS011;45733;52.668;6.860;2023-03-01T01:12:11;1.20;;;1.20;;
59856;SDS011;45733;52.668;6.860;2023-03-01T01:14:37;1.10;;;1.10;;
59856;SDS011;45733;52.668;6.860;2023-03-01T01:17:03;1.20;;;1.20;;
59856;SDS011;45733;52.668;6.860;2023-03-01T01:19:29;1.20;;;1.20;;
59856;SDS011;45733;52.668;6.860;2023-03-01T01:21:55;1.20;;;1.20;;
59856;SDS011;45733;52.668;6.860;2023-03-01T01:24:21;1.10;;;1.10;;
59856;SDS011;45733;52.668;6.860;2023-03-01T01:26:46;1.20;;;1.20;;
59856;SDS011;45733;52.668;6.860;2023-03-01T01:29:12;1.17;;;1.17;;
59856;SDS011;45733;52.668;6.860;2023-03-01T01:31:39;1.10;;;1.10;;
59856;SDS011;45733;52.668;6.860;2023-03-01T01:34:07;1.30;;;1.30;;
59856;SDS011;45733;52.668;6.860;2023-03-01T01:36:37;1.20;;;1.20;;
59856;SDS011;45733;52.668;6.860;2023-03-01T01:39:03;1.50;;;1.40;;
59856;SDS011;45733;52.668;6.860;2023-03-01T01:41:29;1.65;;;1.55;;
59856;SDS011;45733;52.668;6.860;2023-03-01T01:44:12;1.30;;;1.30;;
59856;SDS011;45733;52.668;6.860;2023-03-01T01:47:28;1.60;;;1.50;;
59856;SDS011;45733;52.668;6.860;2023-03-01T01:52:11;1.35;;;1.35;;
59856;SDS011;45733;52.668;6.860;2023-03-01T01:55:00;1.50;;;1.40;;
59856;SDS011;45733;52.668;6.860;2023-03-01T01:57:27;1.50;;;1.40;;
59856;SDS011;45733;52.668;6.860;2023-03-01T02:00:03;1.60;;;1.50;;
59856;SDS011;45733;52.668;6.860;2023-03-01T02:02:32;1.60;;;1.50;;
59856;SDS011;45733;52.668;6.860;2023-03-01T02:05:03;1.60;;;1.50;;
59856;SDS011;45733;52.668;6.860;2023-03-01T02:07:39;1.40;;;1.40;;
59856;SDS011;45733;52.668;6.860;2023-03-01T02:10:07;1.60;;;1.50;;
59856;SDS011;45733;52.668;6.860;2023-03-01T02:12:37;1.60;;;1.50;;
59856;SDS011;45733;52.668;6.860;2023-03-01T02:15:04;1.60;;;1.50;;
59856;SDS011;45733;52.668;6.860;2023-03-01T02:17:30;1.50;;;1.40;;
59856;SDS011;45733;52.668;6.860;2023-03-01T02:20:10;1.50;;;1.40;;
59856;SDS011;45733;52.668;6.860;2023-03-01T02:22:58;1.23;;;1.23;;
59856;SDS011;45733;52.668;6.860;2023-03-01T02:25:44;1.60;;;1.50;;
59856;SDS011;45733;52.668;6.860;2023-03-01T02:30:43;1.50;;;1.40;;
59856;SDS011;45733;52.668;6.860;2023-03-01T02:33:31;1.60;;;1.50;;
59856;SDS011;45733;52.668;6.860;2023-03-01T02:36:02;1.40;;;1.40;;
59856;SDS011;45733;52.668;6.860;2023-03-01T02:38:34;1.20;;;1.20;;
59856;SDS011;45733;52.668;6.860;2023-03-01T02:41:00;1.30;;;1.30;;
59856;SDS011;45733;52.668;6.860;2023-03-01T02:43:29;1.35;;;1.30;;
59856;SDS011;45733;52.668;6.860;2023-03-01T02:45:58;1.50;;;1.40;;
59856;SDS011;45733;52.668;6.860;2023-03-01T02:48:38;1.20;;;1.20;;
59856;SDS011;45733;52.668;6.860;2023-03-01T02:51:15;1.20;;;1.20;;
59856;SDS011;45733;52.668;6.860;2023-03-01T02:54:06;1.35;;;1.35;;
59856;SDS011;45733;52.668;6.860;2023-03-01T02:56:42;1.00;;;1.00;;
59856;SDS011;45733;52.668;6.860;2023-03-01T02:59:09;1.30;;;1.30;;
59856;SDS011;45733;52.668;6.860;2023-03-01T03:01:35;1.33;;;1.33;;
59856;SDS011;45733;52.668;6.860;2023-03-01T03:04:02;1.30;;;1.30;;
59856;SDS011;45733;52.668;6.860;2023-03-01T03:06:29;1.20;;;1.20;;
59856;SDS011;45733;52.668;6.860;2023-03-01T03:08:55;1.10;;;1.10;;
59856;SDS011;45733;52.668;6.860;2023-03-01T03:11:21;1.50;;;1.40;;
59856;SDS011;45733;52.668;6.860;2023-03-01T03:13:46;1.40;;;1.40;;
59856;SDS011;45733;52.668;6.860;2023-03-01T03:16:13;1.30;;;1.30;;
59856;SDS011;45733;52.668;6.860;2023-03-01T03:18:39;1.30;;;1.30;;
59856;SDS011;45733;52.668;6.860;2023-03-01T03:21:08;1.20;;;1.20;;
59856;SDS011;45733;52.668;6.860;2023-03-01T03:23:35;1.10;;;1.10;;
59856;SDS011;45733;52.668;6.860;2023-03-01T03:26:02;1.30;;;1.30;;
59856;SDS011;45733;52.668;6.860;2023-03-01T03:28:32;1.10;;;1.10;;
59856;SDS011;45733;52.668;6.860;2023-03-01T03:30:59;1.40;;;1.40;;
59856;SDS011;45733;52.668;6.860;2023-03-01T03:33:32;1.20;;;1.20;;
59856;SDS011;45733;52.668;6.860;2023-03-01T03:35:58;1.08;;;1.08;;
59856;SDS011;45733;52.668;6.860;2023-03-01T03:38:23;1.10;;;1.10;;
59856;SDS011;45733;52.668;6.860;2023-03-01T03:41:11;1.50;;;1.40;;
59856;SDS011;45733;52.668;6.860;2023-03-01T03:43:36;1.10;;;1.10;;
59856;SDS011;45733;52.668;6.860;2023-03-01T03:46:04;1.10;;;1.10;;
59856;SDS011;45733;52.668;6.860;2023-03-01T03:48:31;1.30;;;1.30;;
59856;SDS011;45733;52.668;6.860;2023-03-01T03:50:59;1.10;;;1.10;;
59856;SDS011;45733;52.668;6.860;2023-03-01T03:53:25;1.00;;;1.00;;
59856;SDS011;45733;52.668;6.860;2023-03-01T03:55:52;1.20;;;1.20;;
59856;SDS011;45733;52.668;6.860;2023-03-01T03:58:19;1.50;;;1.40;;
59856;SDS011;45733;52.668;6.860;2023-03-01T04:00:47;1.30;;;1.30;;
59856;SDS011;45733;52.668;6.860;2023-03-01T04:03:15;1.35;;;1.35;;
59856;SDS011;45733;52.668;6.860;2023-03-01T04:05:43;1.30;;;1.30;;
59856;SDS011;45733;52.668;6.860;2023-03-01T04:08:09;1.30;;;1.30;;
59856;SDS011;45733;52.668;6.860;2023-03-01T04:13:04;1.30;;;1.30;;
59856;SDS011;45733;52.668;6.860;2023-03-01T04:15:32;1.10;;;1.10;;
59856;SDS011;45733;52.668;6.860;2023-03-01T04:17:58;1.30;;;1.30;;
59856;SDS011;45733;52.668;6.860;2023-03-01T04:20:26;1.20;;;1.20;;
59856;SDS011;45733;52.668;6.860;2023-03-01T04:28:39;1.10;;;1.10;;
59856;SDS011;45733;52.668;6.860;2023-03-01T04:31:11;1.25;;;1.25;;
59856;SDS011;45733;52.668;6.860;2023-03-01T04:33:41;1.30;;;1.30;;
59856;SDS011;45733;52.668;6.860;2023-03-01T04:36:08;1.20;;;1.20;;
59856;SDS011;45733;52.668;6.860;2023-03-01T04:38:35;1.05;;;1.05;;
59856;SDS011;45733;52.668;6.860;2023-03-01T04:41:06;1.50;;;1.40;;
59856;SDS011;45733;52.668;6.860;2023-03-01T04:43:33;1.10;;;1.10;;
59856;SDS011;45733;52.668;6.860;2023-03-01T04:46:03;1.20;;;1.20;;
59856;SDS011;45733;52.668;6.860;2023-03-01T04:48:33;1.10;;;1.10;;
59856;SDS011;45733;52.668;6.860;2023-03-01T04:50:59;1.10;;;1.10;;
59856;SDS011;45733;52.668;6.860;2023-03-01T04:53:25;1.38;;;1.35;;
59856;SDS011;45733;52.668;6.860;2023-03-01T04:55:51;1.30;;;1.30;;
59856;SDS011;45733;52.668;6.860;2023-03-01T04:58:18;1.23;;;1.23;;
59856;SDS011;45733;52.668;6.860;2023-03-01T05:00:44;1.17;;;1.17;;
59856;SDS011;45733;52.668;6.860;2023-03-01T05:03:10;1.20;;;1.20;;
59856;SDS011;45733;52.668;6.860;2023-03-01T05:05:36;1.20;;;1.20;;
59856;SDS011;45733;52.668;6.860;2023-03-01T05:08:04;1.10;;;1.10;;
59856;SDS011;45733;52.668;6.860;2023-03-01T05:10:31;1.25;;;1.25;;
59856;SDS011;45733;52.668;6.860;2023-03-01T05:13:00;1.20;;;1.20;;
59856;SDS011;45733;52.668;6.860;2023-03-01T05:15:26;1.10;;;1.10;;
59856;SDS011;45733;52.668;6.860;2023-03-01T05:17:55;1.30;;;1.30;;
59856;SDS011;45733;52.668;6.860;2023-03-01T05:20:23;1.20;;;1.20;;
59856;SDS011;45733;52.668;6.860;2023-03-01T05:22:53;1.10;;;1.10;;
59856;SDS011;45733;52.668;6.860;2023-03-01T05:25:21;1.30;;;1.30;;
59856;SDS011;45733;52.668;6.860;2023-03-01T05:27:46;1.10;;;1.10;;
59856;SDS011;45733;52.668;6.860;2023-03-01T05:30:13;1.20;;;1.20;;
59856;SDS011;45733;52.668;6.860;2023-03-01T05:32:43;1.05;;;1.05;;
59856;SDS011;45733;52.668;6.860;2023-03-01T05:35:11;1.50;;;1.40;;
59856;SDS011;45733;52.668;6.860;2023-03-01T05:37:39;1.30;;;1.30;;
59856;SDS011;45733;52.668;6.860;2023-03-01T05:40:10;1.30;;;1.30;;
59856;SDS011;45733;52.668;6.860;2023-03-01T05:42:58;1.30;;;1.30;;
59856;SDS011;45733;52.668;6.860;2023-03-01T05:45:25;1.27;;;1.27;;
59856;SDS011;45733;52.668;6.860;2023-03-01T05:47:51;1.30;;;1.30;;
59856;SDS011;45733;52.668;6.860;2023-03-01T05:50:19;1.30;;;1.30;;
59856;SDS011;45733;52.668;6.860;2023-03-01T05:53:00;2.90;;;2.75;;
59856;SDS011;45733;52.668;6.860;2023-03-01T05:55:28;1.30;;;1.30;;
59856;SDS011;45733;52.668;6.860;2023-03-01T05:57:55;1.20;;;1.20;;
59856;SDS011;45733;52.668;6.860;2023-03-01T06:00:22;1.30;;;1.30;;
59856;SDS011;45733;52.668;6.860;2023-03-01T06:02:48;1.20;;;1.20;;
59856;SDS011;45733;52.668;6.860;2023-03-01T06:05:14;1.30;;;1.30;;
59856;SDS011;45733;52.668;6.860;2023-03-01T06:07:40;1.50;;;1.40;;
59856;SDS011;45733;52.668;6.860;2023-03-01T06:10:07;1.30;;;1.30;;
59856;SDS011;45733;52.668;6.860;2023-03-01T06:12:34;1.20;;;1.20;;
59856;SDS011;45733;52.668;6.860;2023-03-01T06:15:01;1.10;;;1.10;;
59856;SDS011;45733;52.668;6.860;2023-03-01T06:17:29;1.30;;;1.30;;
59856;SDS011;45733;52.668;6.860;2023-03-01T06:19:56;1.30;;;1.30;;
59856;SDS011;45733;52.668;6.860;2023-03-01T06:22:22;1.20;;;1.20;;
59856;SDS011;45733;52.668;6.860;2023-03-01T06:24:47;1.20;;;1.20;;
59856;SDS011;45733;52.668;6.860;2023-03-01T06:27:13;1.20;;;1.20;;
59856;SDS011;45733;52.668;6.860;2023-03-01T06:29:39;1.20;;;1.20;;
59856;SDS011;45733;52.668;6.860;2023-03-01T06:32:04;1.20;;;1.20;;
59856;SDS011;45733;52.668;6.860;2023-03-01T06:34:30;1.10;;;1.10;;
59856;SDS011;45733;52.668;6.860;2023-03-01T06:36:57;1.30;;;1.30;;
59856;SDS011;45733;52.668;6.860;2023-03-01T06:39:22;1.30;;;1.30;;
59856;SDS011;45733;52.668;6.860;2023-03-01T06:41:48;1.10;;;1.10;;
59856;SDS011;45733;52.668;6.860;2023-03-01T06:44:14;1.30;;;1.30;;
59856;SDS011;45733;52.668;6.860;2023-03-01T06:46:40;1.20;;;1.20;;
59856;SDS011;45733;52.668;6.860;2023-03-01T06:49:06;1.00;;;1.00;;
59856;SDS011;45733;52.668;6.860;2023-03-01T06:51:34;1.00;;;1.00;;
59856;SDS011;45733;52.668;6.860;2023-03-01T06:54:02;1.30;;;1.30;;
59856;SDS011;45733;52.668;6.860;2023-03-01T06:56:28;1.20;;;1.20;;
59856;SDS011;45733;52.668;6.860;2023-03-01T06:58:54;1.20;;;1.20;;
59856;SDS011;45733;52.668;6.860;2023-03-01T07:01:20;1.10;;;1.10;;
59856;SDS011;45733;52.668;6.860;2023-03-01T07:03:46;1.30;;;1.30;;
59856;SDS011;45733;52.668;6.860;2023-03-01T07:06:11;1.10;;;1.10;;
59856;SDS011;45733;52.668;6.860;2023-03-01T07:08:37;1.30;;;1.30;;
59856;SDS011;45733;52.668;6.860;2023-03-01T07:11:03;1.20;;;1.20;;
59856;SDS011;45733;52.668;6.860;2023-03-01T07:13:29;1.20;;;1.20;;
59856;SDS011;45733;52.668;6.860;2023-03-01T07:15:54;1.20;;;1.20;;
59856;SDS011;45733;52.668;6.860;2023-03-01T07:18:20;1.00;;;1.00;;
59856;SDS011;45733;52.668;6.860;2023-03-01T07:20:46;0.90;;;0.90;;
59856;SDS011;45733;52.668;6.860;2023-03-01T07:23:12;1.10;;;1.10;;
59856;SDS011;45733;52.668;6.860;2023-03-01T07:25:37;1.10;;;1.10;;
59856;SDS011;45733;52.668;6.860;2023-03-01T07:28:03;1.00;;;1.00;;
59856;SDS011;45733;52.668;6.860;2023-03-01T07:30:29;1.10;;;1.10;;
59856;SDS011;45733;52.668;6.860;2023-03-01T07:32:55;1.10;;;1.10;;
59856;SDS011;45733;52.668;6.860;2023-03-01T07:35:22;1.20;;;1.20;;
59856;SDS011;45733;52.668;6.860;2023-03-01T07:37:49;1.00;;;1.00;;
59856;SDS011;45733;52.668;6.860;2023-03-01T07:40:15;1.00;;;1.00;;
59856;SDS011;45733;52.668;6.860;2023-03-01T07:42:41;1.10;;;1.10;;
59856;SDS011;45733;52.668;6.860;2023-03-01T07:45:07;1.00;;;1.00;;
59856;SDS011;45733;52.668;6.860;2023-03-01T07:47:32;1.00;;;1.00;;
59856;SDS011;45733;52.668;6.860;2023-03-01T07:49:58;1.10;;;1.10;;
59856;SDS011;45733;52.668;6.860;2023-03-01T07:52:24;1.00;;;1.00;;
59856;SDS011;45733;52.668;6.860;2023-03-01T07:54:50;1.00;;;1.00;;
59856;SDS011;45733;52.668;6.860;2023-03-01T07:57:15;1.00;;;1.00;;
59856;SDS011;45733;52.668;6.860;2023-03-01T07:59:41;1.00;;;1.00;;
59856;SDS011;45733;52.668;6.860;2023-03-01T08:02:07;0.90;;;0.90;;
59856;SDS011;45733;52.668;6.860;2023-03-01T08:04:33;0.90;;;0.90;;
59856;SDS011;45733;52.668;6.860;2023-03-01T08:06:59;1.00;;;1.00;;
59856;SDS011;45733;52.668;6.860;2023-03-01T08:09:25;0.90;;;0.90;;
59856;SDS011;45733;52.668;6.860;2023-03-01T08:11:51;0.90;;;0.90;;
59856;SDS011;45733;52.668;6.860;2023-03-01T08:14:16;0.90;;;0.90;;
59856;SDS011;45733;52.668;6.860;2023-03-01T08:16:42;0.90;;;0.90;;
59856;SDS011;45733;52.668;6.860;2023-03-01T08:19:09;0.90;;;0.90;;
59856;SDS011;45733;52.668;6.860;2023-03-01T08:21:36;0.80;;;0.80;;
59856;SDS011;45733;52.668;6.860;2023-03-01T08:24:05;0.90;;;0.90;;
59856;SDS011;45733;52.668;6.860;2023-03-01T08:26:33;0.80;;;0.80;;
59856;SDS011;45733;52.668;6.860;2023-03-01T08:28:59;0.90;;;0.90;;
59856;SDS011;45733;52.668;6.860;2023-03-01T08:31:35;0.80;;;0.80;;
59856;SDS011;45733;52.668;6.860;2023-03-01T08:34:07;0.90;;;0.90;;
59856;SDS011;45733;52.668;6.860;2023-03-01T08:36:36;0.90;;;0.90;;
59856;SDS011;45733;52.668;6.860;2023-03-01T08:39:06;0.80;;;0.80;;
59856;SDS011;45733;52.668;6.860;2023-03-01T08:41:33;0.80;;;0.80;;
59856;SDS011;45733;52.668;6.860;2023-03-01T08:43:59;0.80;;;0.80;;
59856;SDS011;45733;52.668;6.860;2023-03-01T08:46:32;0.70;;;0.70;;
59856;SDS011;45733;52.668;6.860;2023-03-01T08:49:03;0.70;;;0.70;;
59856;SDS011;45733;52.668;6.860;2023-03-01T08:51:30;0.73;;;0.73;;
59856;SDS011;45733;52.668;6.860;2023-03-01T08:54:01;0.70;;;0.70;;
59856;SDS011;45733;52.668;6.860;2023-03-01T08:56:28;0.70;;;0.70;;
59856;SDS011;45733;52.668;6.860;2023-03-01T08:58:54;0.70;;;0.70;;
59856;SDS011;45733;52.668;6.860;2023-03-01T09:01:19;0.70;;;0.70;;
59856;SDS011;45733;52.668;6.860;2023-03-01T09:03:45;0.70;;;0.70;;
59856;SDS011;45733;52.668;6.860;2023-03-01T09:06:11;0.70;;;0.70;;
59856;SDS011;45733;52.668;6.860;2023-03-01T09:08:38;0.70;;;0.70;;
59856;SDS011;45733;52.668;6.860;2023-03-01T09:11:06;0.70;;;0.70;;
59856;SDS011;45733;52.668;6.860;2023-03-01T09:13:33;0.60;;;0.60;;
59856;SDS011;45733;52.668;6.860;2023-03-01T09:16:00;0.70;;;0.70;;
59856;SDS011;45733;52.668;6.860;2023-03-01T09:18:27;0.70;;;0.70;;
59856;SDS011;45733;52.668;6.860;2023-03-01T09:20:53;0.70;;;0.70;;
59856;SDS011;45733;52.668;6.860;2023-03-01T09:23:25;0.70;;;0.70;;
59856;SDS011;45733;52.668;6.860;2023-03-01T09:25:52;0.60;;;0.60;;
59856;SDS011;45733;52.668;6.860;2023-03-01T09:28:17;0.70;;;0.70;;
59856;SDS011;45733;52.668;6.860;2023-03-01T09:30:43;0.60;;;0.60;;
59856;SDS011;45733;52.668;6.860;2023-03-01T09:33:09;0.60;;;0.60;;
59856;SDS011;45733;52.668;6.860;2023-03-01T09:35:39;0.70;;;0.70;;
59856;SDS011;45733;52.668;6.860;2023-03-01T09:38:11;0.70;;;0.70;;
59856;SDS011;45733;52.668;6.860;2023-03-01T09:40:41;0.70;;;0.70;;
59856;SDS011;45733;52.668;6.860;2023-03-01T09:43:19;0.70;;;0.70;;
59856;SDS011;45733;52.668;6.860;2023-03-01T09:46:06;0.70;;;0.70;;
59856;SDS011;45733;52.668;6.860;2023-03-01T09:48:41;0.70;;;0.70;;
59856;SDS011;45733;52.668;6.860;2023-03-01T09:51:18;0.70;;;0.70;;
59856;SDS011;45733;52.668;6.860;2023-03-01T09:53:48;0.60;;;0.60;;
59856;SDS011;45733;52.668;6.860;2023-03-01T10:01:38;0.60;;;0.60;;
59856;SDS011;45733;52.668;6.860;2023-03-01T10:06:52;0.65;;;0.65;;
59856;SDS011;45733;52.668;6.860;2023-03-01T10:09:28;0.70;;;0.70;;
59856;SDS011;45733;52.668;6.860;2023-03-01T10:11:58;0.60;;;0.60;;
59856;SDS011;45733;52.668;6.860;2023-03-01T10:20:10;0.60;;;0.60;;
59856;SDS011;45733;52.668;6.860;2023-03-01T10:22:44;0.60;;;0.60;;
59856;SDS011;45733;52.668;6.860;2023-03-01T10:25:20;0.70;;;0.70;;
59856;SDS011;45733;52.668;6.860;2023-03-01T10:28:01;0.70;;;0.70;;
59856;SDS011;45733;52.668;6.860;2023-03-01T10:30:36;0.70;;;0.70;;
59856;SDS011;45733;52.668;6.860;2023-03-01T10:33:09;0.70;;;0.70;;
59856;SDS011;45733;52.668;6.860;2023-03-01T10:35:44;0.60;;;0.60;;
59856;SDS011;45733;52.668;6.860;2023-03-01T10:38:11;0.70;;;0.70;;
59856;SDS011;45733;52.668;6.860;2023-03-01T10:43:19;0.70;;;0.70;;
59856;SDS011;45733;52.668;6.860;2023-03-01T10:45:45;0.70;;;0.70;;
59856;SDS011;45733;52.668;6.860;2023-03-01T10:48:13;0.70;;;0.70;;
59856;SDS011;45733;52.668;6.860;2023-03-01T10:50:45;0.70;;;0.70;;
59856;SDS011;45733;52.668;6.860;2023-03-01T10:53:35;0.70;;;0.70;;
59856;SDS011;45733;52.668;6.860;2023-03-01T10:58:34;0.70;;;0.70;;
59856;SDS011;45733;52.668;6.860;2023-03-01T11:01:04;0.60;;;0.60;;
59856;SDS011;45733;52.668;6.860;2023-03-01T11:04:03;0.70;;;0.70;;
59856;SDS011;45733;52.668;6.860;2023-03-01T11:06:37;0.70;;;0.70;;
59856;SDS011;45733;52.668;6.860;2023-03-01T11:09:13;0.70;;;0.70;;
59856;SDS011;45733;52.668;6.860;2023-03-01T11:11:54;0.70;;;0.70;;
59856;SDS011;45733;52.668;6.860;2023-03-01T11:14:26;0.70;;;0.70;;
59856;SDS011;45733;52.668;6.860;2023-03-01T11:16:59;0.95;;;0.95;;
59856;SDS011;45733;52.668;6.860;2023-03-01T11:19:28;0.70;;;0.70;;
59856;SDS011;45733;52.668;6.860;2023-03-01T11:21:59;0.70;;;0.70;;
59856;SDS011;45733;52.668;6.860;2023-03-01T11:24:46;0.60;;;0.60;;
59856;SDS011;45733;52.668;6.860;2023-03-01T11:29:47;0.60;;;0.60;;
59856;SDS011;45733;52.668;6.860;2023-03-01T11:32:21;0.70;;;0.70;;
59856;SDS011;45733;52.668;6.860;2023-03-01T11:34:56;0.70;;;0.70;;
59856;SDS011;45733;52.668;6.860;2023-03-01T11:40:21;0.70;;;0.70;;
59856;SDS011;45733;52.668;6.860;2023-03-01T11:45:22;0.60;;;0.60;;
59856;SDS011;45733;52.668;6.860;2023-03-01T11:50:58;0.60;;;0.60;;
59856;SDS011;45733;52.668;6.860;2023-03-01T11:56:05;0.60;;;0.60;;
59856;SDS011;45733;52.668;6.860;2023-03-01T12:07:17;0.70;;;0.70;;
59856;SDS011;45733;52.668;6.860;2023-03-01T12:15:39;0.68;;;0.68;;
59856;SDS011;45733;52.668;6.860;2023-03-01T12:25:58;0.70;;;0.70;;
59856;SDS011;45733;52.668;6.860;2023-03-01T12:28:51;0.60;;;0.60;;
59856;SDS011;45733;52.668;6.860;2023-03-01T12:31:30;0.60;;;0.60;;
59856;SDS011;45733;52.668;6.860;2023-03-01T12:34:43;0.60;;;0.60;;
59856;SDS011;45733;52.668;6.860;2023-03-01T12:37:59;0.60;;;0.60;;
59856;SDS011;45733;52.668;6.860;2023-03-01T12:50:51;0.60;;;0.60;;
59856;SDS011;45733;52.668;6.860;2023-03-01T12:53:22;0.68;;;0.68;;
59856;SDS011;45733;52.668;6.860;2023-03-01T12:55:50;0.70;;;0.70;;
59856;SDS011;45733;52.668;6.860;2023-03-01T13:01:00;0.70;;;0.70;;
59856;SDS011;45733;52.668;6.860;2023-03-01T13:11:31;0.70;;;0.70;;
59856;SDS011;45733;52.668;6.860;2023-03-01T13:14:34;0.70;;;0.70;;
59856;SDS011;45733;52.668;6.860;2023-03-01T13:16:56;0.70;;;0.70;;
59856;SDS011;45733;52.668;6.860;2023-03-01T13:19:23;0.68;;;0.68;;
59856;SDS011;45733;52.668;6.860;2023-03-01T13:21:52;0.70;;;0.70;;
59856;SDS011;45733;52.668;6.860;2023-03-01T13:24:40;0.80;;;0.80;;
59856;SDS011;45733;52.668;6.860;2023-03-01T13:29:49;0.80;;;0.80;;
59856;SDS011;45733;52.668;6.860;2023-03-01T13:32:30;0.77;;;0.77;;
59856;SDS011;45733;52.668;6.860;2023-03-01T13:35:48;0.70;;;0.70;;
59856;SDS011;45733;52.668;6.860;2023-03-01T13:37:52;0.70;;;0.70;;
59856;SDS011;45733;52.668;6.860;2023-03-01T13:40:56;0.80;;;0.80;;
59856;SDS011;45733;52.668;6.860;2023-03-01T13:43:28;0.80;;;0.80;;
59856;SDS011;45733;52.668;6.860;2023-03-01T13:45:56;0.80;;;0.80;;
59856;SDS011;45733;52.668;6.860;2023-03-01T13:48:27;0.80;;;0.80;;
59856;SDS011;45733;52.668;6.860;2023-03-01T13:51:05;0.80;;;0.80;;
59856;SDS011;45733;52.668;6.860;2023-03-01T13:53:35;0.70;;;0.70;;
59856;SDS011;45733;52.668;6.860;2023-03-01T13:56:20;0.80;;;0.80;;
59856;SDS011;45733;52.668;6.860;2023-03-01T13:59:00;0.77;;;0.77;;
59856;SDS011;45733;52.668;6.860;2023-03-01T14:01:33;0.70;;;0.70;;
59856;SDS011;45733;52.668;6.860;2023-03-01T14:04:00;0.70;;;0.70;;
59856;SDS011;45733;52.668;6.860;2023-03-01T14:06:32;0.80;;;0.80;;
59856;SDS011;45733;52.668;6.860;2023-03-01T14:19:45;0.75;;;0.75;;
59856;SDS011;45733;52.668;6.860;2023-03-01T14:22:22;0.70;;;0.70;;
59856;SDS011;45733;52.668;6.860;2023-03-01T14:24:50;0.80;;;0.80;;
59856;SDS011;45733;52.668;6.860;2023-03-01T14:27:19;0.70;;;0.70;;
59856;SDS011;45733;52.668;6.860;2023-03-01T14:29:58;0.80;;;0.80;;
59856;SDS011;45733;52.668;6.860;2023-03-01T14:32:29;0.73;;;0.73;;
59856;SDS011;45733;52.668;6.860;2023-03-01T14:34:58;0.80;;;0.80;;
59856;SDS011;45733;52.668;6.860;2023-03-01T14:37:26;0.70;;;0.70;;
59856;SDS011;45733;52.668;6.860;2023-03-01T14:39:54;0.80;;;0.80;;
59856;SDS011;45733;52.668;6.860;2023-03-01T14:42:22;0.70;;;0.70;;
59856;SDS011;45733;52.668;6.860;2023-03-01T14:44:51;0.80;;;0.80;;
59856;SDS011;45733;52.668;6.860;2023-03-01T14:47:37;0.80;;;0.80;;
59856;SDS011;45733;52.668;6.860;2023-03-01T14:52:34;0.80;;;0.80;;
59856;SDS011;45733;52.668;6.860;2023-03-01T14:55:06;0.80;;;0.80;;
59856;SDS011;45733;52.668;6.860;2023-03-01T14:57:42;0.80;;;0.80;;
59856;SDS011;45733;52.668;6.860;2023-03-01T15:00:10;0.80;;;0.80;;
59856;SDS011;45733;52.668;6.860;2023-03-01T15:02:53;0.80;;;0.80;;
59856;SDS011;45733;52.668;6.860;2023-03-01T15:05:27;0.77;;;0.77;;
59856;SDS011;45733;52.668;6.860;2023-03-01T15:07:56;0.80;;;0.80;;
59856;SDS011;45733;52.668;6.860;2023-03-01T15:10:25;0.80;;;0.80;;
59856;SDS011;45733;52.668;6.860;2023-03-01T15:12:53;0.80;;;0.80;;
59856;SDS011;45733;52.668;6.860;2023-03-01T15:15:20;0.80;;;0.80;;
59856;SDS011;45733;52.668;6.860;2023-03-01T15:17:54;0.80;;;0.80;;
59856;SDS011;45733;52.668;6.860;2023-03-01T15:20:22;0.80;;;0.80;;
59856;SDS011;45733;52.668;6.860;2023-03-01T15:22:55;0.80;;;0.80;;
59856;SDS011;45733;52.668;6.860;2023-03-01T15:25:23;0.80;;;0.80;;
59856;SDS011;45733;52.668;6.860;2023-03-01T15:27:54;0.80;;;0.80;;
59856;SDS011;45733;52.668;6.860;2023-03-01T15:30:27;0.80;;;0.80;;
59856;SDS011;45733;52.668;6.860;2023-03-01T15:36:02;0.80;;;0.80;;
59856;SDS011;45733;52.668;6.860;2023-03-01T15:43:47;0.80;;;0.80;;
59856;SDS011;45733;52.668;6.860;2023-03-01T15:46:20;0.90;;;0.90;;
59856;SDS011;45733;52.668;6.860;2023-03-01T15:49:18;0.80;;;0.80;;
59856;SDS011;45733;52.668;6.860;2023-03-01T15:52:12;0.90;;;0.90;;
59856;SDS011;45733;52.668;6.860;2023-03-01T15:54:45;0.90;;;0.90;;
59856;SDS011;45733;52.668;6.860;2023-03-01T15:57:14;0.80;;;0.80;;
59856;SDS011;45733;52.668;6.860;2023-03-01T15:59:42;0.80;;;0.80;;
59856;SDS011;45733;52.668;6.860;2023-03-01T16:02:12;0.85;;;0.85;;
59856;SDS011;45733;52.668;6.860;2023-03-01T16:04:38;0.90;;;0.90;;
59856;SDS011;45733;52.668;6.860;2023-03-01T16:07:04;0.80;;;0.80;;
59856;SDS011;45733;52.668;6.860;2023-03-01T16:09:31;0.90;;;0.90;;
59856;SDS011;45733;52.668;6.860;2023-03-01T16:11:57;0.90;;;0.90;;
59856;SDS011;45733;52.668;6.860;2023-03-01T16:14:23;0.90;;;0.90;;
59856;SDS011;45733;52.668;6.860;2023-03-01T16:16:49;0.80;;;0.80;;
59856;SDS011;45733;52.668;6.860;2023-03-01T16:19:15;0.80;;;0.80;;
59856;SDS011;45733;52.668;6.860;2023-03-01T16:21:41;0.90;;;0.90;;
59856;SDS011;45733;52.668;6.860;2023-03-01T16:24:08;0.80;;;0.80;;
59856;SDS011;45733;52.668;6.860;2023-03-01T16:26:34;0.80;;;0.80;;
59856;SDS011;45733;52.668;6.860;2023-03-01T16:29:01;0.90;;;0.90;;
59856;SDS011;45733;52.668;6.860;2023-03-01T16:31:27;0.90;;;0.90;;
59856;SDS011;45733;52.668;6.860;2023-03-01T16:33:54;0.80;;;0.80;;
59856;SDS011;45733;52.668;6.860;2023-03-01T16:36:21;0.80;;;0.80;;
59856;SDS011;45733;52.668;6.860;2023-03-01T16:38:49;0.80;;;0.80;;
59856;SDS011;45733;52.668;6.860;2023-03-01T16:41:16;0.80;;;0.80;;
59856;SDS011;45733;52.668;6.860;2023-03-01T16:43:43;0.80;;;0.80;;
59856;SDS011;45733;52.668;6.860;2023-03-01T16:48:37;0.90;;;0.90;;
59856;SDS011;45733;52.668;6.860;2023-03-01T16:51:04;0.90;;;0.90;;
59856;SDS011;45733;52.668;6.860;2023-03-01T16:53:30;0.90;;;0.90;;
59856;SDS011;45733;52.668;6.860;2023-03-01T16:55:56;0.80;;;0.80;;
59856;SDS011;45733;52.668;6.860;2023-03-01T16:58:23;0.80;;;0.80;;
59856;SDS011;45733;52.668;6.860;2023-03-01T17:00:50;0.88;;;0.88;;
59856;SDS011;45733;52.668;6.860;2023-03-01T17:03:18;0.88;;;0.88;;